Time;durP1;ratioP1;P1;durP2;ratioP2;P2;SDS_P1;SDS_P2;PMS_P1;PMS_P2;Temp;Humidity;BMP_temperature;BMP_pressure;BME280_temperature;BME280_humidity;BME280_pressure;Samples;Min_cycle;Max_cycle;Signal;HPM_P1;HPM_P2
2021/06/02 00:00:09;;;;;;;28.83;13.13;;;;;;;12.00;52.43;99367.53;125653;1104;103081;-73
2021/06/02 00:02:59;;;;;;;;;;;;;;;12.00;53.21;99372.87;125668;1104;104222;-73
2021/06/02 00:05:29;;;;;;;26.93;11.63;;;;;;;12.00;52.69;99367.53;125565;1104;102989;-75
2021/06/02 00:07:59;;;;;;;27.87;12.97;;;;;;;11.99;52.68;99364.97;125579;1100;103059;-75
2021/06/02 00:10:27;;;;;;;26.67;11.80;;;;;;;11.99;52.71;99363.16;125528;1104;102987;-74
2021/06/02 00:12:56;;;;;;;28.03;12.73;;;;;;;12.01;52.72;99363.07;125559;1104;103014;-72
2021/06/02 00:15:24;;;;;;;25.40;12.30;;;;;;;12.02;52.65;99367.44;125541;1105;103116;-73
2021/06/02 00:17:53;;;;;;;27.73;13.07;;;;;;;12.03;52.95;99366.44;125510;1099;103115;-72
2021/06/02 00:20:21;;;;;;;25.10;11.00;;;;;;;11.93;52.50;99357.41;125546;1105;103463;-73
2021/06/02 00:22:50;;;;;;;25.67;11.23;;;;;;;11.79;52.68;99351.28;125568;1104;103100;-74
2021/06/02 00:25:19;;;;;;;22.47;10.33;;;;;;;11.75;52.76;99353.33;125532;1096;103099;-73
2021/06/02 00:27:51;;;;;;;25.90;10.50;;;;;;;11.63;52.54;99359.54;125528;1104;103079;-74
2021/06/02 00:30:20;;;;;;;24.80;10.10;;;;;;;11.48;52.64;99356.17;125529;1104;103006;-72
2021/06/02 00:32:50;;;;;;;25.57;10.27;;;;;;;11.45;53.11;99359.89;125519;1104;103148;-72
2021/06/02 00:35:19;;;;;;;23.17;9.90;;;;;;;11.47;53.32;99359.80;125582;1104;103078;-72
2021/06/02 00:37:50;;;;;;;24.43;10.10;;;;;;;11.51;53.45;99357.75;125564;1097;103528;-72
2021/06/02 00:40:32;;;;;;;24.77;11.17;;;;;;;11.54;53.39;99354.88;125578;1104;103075;-72
2021/06/02 00:43:04;;;;;;;24.53;11.47;;;;;;;11.54;53.38;99355.73;125498;1096;102997;-72
2021/06/02 00:45:33;;;;;;;24.80;11.30;;;;;;;11.57;53.61;99368.84;125587;1104;102982;-72
2021/06/02 00:48:04;;;;;;;21.13;10.37;;;;;;;11.56;53.32;99366.27;125579;1104;103062;-72
2021/06/02 00:50:32;;;;;;;23.87;10.47;;;;;;;11.40;53.17;99358.53;125565;1096;103058;-72
2021/06/02 00:53:01;;;;;;;24.00;11.23;;;;;;;11.21;53.20;99364.31;125616;1104;103009;-72
2021/06/02 00:55:29;;;;;;;25.13;11.63;;;;;;;11.08;53.55;99367.83;125556;1104;103064;-72
2021/06/02 00:57:58;;;;;;;21.53;10.77;;;;;;;11.10;53.76;99367.75;125551;1104;102984;-72
2021/06/02 01:00:28;;;;;;;27.10;11.50;;;;;;;11.16;53.95;99364.66;125550;1096;103647;-72
2021/06/02 01:02:58;;;;;;;22.10;10.37;;;;;;;11.13;53.67;99367.53;125590;1104;103078;-71
2021/06/02 01:05:26;;;;;;;26.87;12.10;;;;;;;11.00;53.73;99367.55;125571;1104;103219;-73
2021/06/02 01:08:03;;;;;;;23.67;10.10;;;;;;;10.80;53.76;99369.77;125540;1104;103081;-73
2021/06/02 01:10:31;;;;;;;24.67;11.67;;;;;;;10.69;54.00;99373.17;125567;1096;103080;-73
2021/06/02 01:13:00;;;;;;;24.33;11.70;;;;;;;10.70;54.36;99369.55;125596;1104;103032;-74
2021/06/02 01:15:28;;;;;;;21.67;10.57;;;;;;;10.72;54.14;99375.63;125636;1096;103081;-73
2021/06/02 01:17:58;;;;;;;24.57;12.40;;;;;;;10.66;54.28;99377.83;125703;1104;103011;-72
2021/06/02 01:20:28;;;;;;;26.83;13.10;;;;;;;10.51;54.38;99369.95;125491;1104;103167;-72
2021/06/02 01:22:58;;;;;;;27.27;13.10;;;;;;;10.39;54.87;99378.75;125507;1104;103075;-73
2021/06/02 01:25:26;;;;;;;26.45;13.00;;;;;;;10.25;54.87;99377.83;125568;1104;103067;-74
2021/06/02 01:27:55;;;;;;;24.80;11.93;;;;;;;10.19;55.68;99382.70;125607;1104;103055;-73
2021/06/02 01:30:23;;;;;;;29.67;14.23;;;;;;;10.09;55.23;99379.81;125530;1104;102981;-72
2021/06/02 01:33:27;;;;;;;29.33;12.93;;;;;;;10.07;55.38;99381.72;125501;1104;103119;-71
2021/06/02 01:36:13;;;;;;;25.40;12.90;;;;;;;10.08;55.70;99383.42;125550;1096;103205;-73
2021/06/02 01:39:32;;;;;;;24.87;12.37;;;;;;;10.13;55.50;99386.63;125534;1104;103056;-72
2021/06/02 01:42:24;;;;;;;24.43;11.67;;;;;;;10.15;55.76;99391.83;125528;1099;103160;-72
2021/06/02 01:45:15;;;;;;;23.03;10.50;;;;;;;10.13;55.63;99387.47;125473;1099;103293;-73
2021/06/02 01:48:15;;;;;;;23.47;10.60;;;;;;;10.11;55.88;99397.34;125511;1104;103053;-74
2021/06/02 01:51:35;;;;;;;21.40;9.93;;;;;;;10.20;56.19;99387.91;125559;1104;103108;-73
2021/06/02 01:54:35;;;;;;;23.80;10.33;;;;;;;10.11;55.85;99388.54;125490;1104;103546;-73
2021/06/02 01:57:54;;;;;;;21.97;11.23;;;;;;;10.11;56.12;99394.69;125588;1104;103070;-73
2021/06/02 02:00:43;;;;;;;22.57;10.07;;;;;;;10.17;56.35;99388.14;125542;1104;103155;-72
2021/06/02 02:03:27;;;;;;;20.57;9.43;;;;;;;10.11;56.18;99391.20;125529;1104;103028;-72
2021/06/02 02:06:33;;;;;;;22.87;10.67;;;;;;;10.03;56.28;99383.70;125569;1104;103112;-73
2021/06/02 02:09:27;;;;;;;22.10;10.70;;;;;;;10.02;56.32;99389.13;125558;1103;103077;-72
2021/06/02 02:12:20;;;;;;;22.88;10.50;;;;;;;10.08;56.94;99391.39;125567;1104;103010;-72
2021/06/02 02:14:58;;;;;;;23.87;11.27;;;;;;;10.16;56.93;99390.88;125607;1104;102992;-71
2021/06/02 02:17:55;;;;;;;23.37;10.10;;;;;;;10.23;56.82;99384.21;125553;1104;103004;-73
2021/06/02 02:20:41;;;;;;;24.20;10.83;;;;;;;10.20;56.44;99393.23;125576;1104;103013;-72
2021/06/02 02:23:48;;;;;;;21.60;10.53;;;;;;;10.21;57.05;99388.78;125575;1104;103455;-73
2021/06/02 02:26:58;;;;;;;22.37;10.83;;;;;;;10.28;57.09;99392.73;125653;1096;103052;-72
2021/06/02 02:29:51;;;;;;;21.63;10.47;;;;;;;10.33;57.08;99395.08;125638;1104;103052;-73
2021/06/02 02:32:44;;;;;;;24.90;11.60;;;;;;;10.38;57.25;99388.52;125646;1104;103077;-71
2021/06/02 02:35:25;;;;;;;;;;;;;;;10.42;57.96;99394.50;125589;1096;103493;-73
2021/06/02 02:38:10;;;;;;;22.13;9.83;;;;;;;10.46;57.33;99400.45;125571;1104;103486;-72
2021/06/02 02:40:50;;;;;;;22.37;10.30;;;;;;;10.50;57.44;99386.00;125590;1104;103056;-71
2021/06/02 02:43:37;;;;;;;24.83;10.63;;;;;;;10.50;57.50;99389.53;125582;1104;103203;-73
2021/06/02 02:46:09;;;;;;;24.23;10.97;;;;;;;10.53;57.26;99405.28;125528;1104;103085;-72
2021/06/02 02:48:47;;;;;;;25.20;11.00;;;;;;;10.57;57.43;99416.55;125572;1104;103094;-73
2021/06/02 02:51:42;;;;;;;25.10;10.30;;;;;;;10.61;57.42;99415.40;125553;1096;103051;-72
2021/06/02 02:54:18;;;;;;;20.47;9.70;;;;;;;10.56;57.22;99414.85;125485;1104;103126;-72
2021/06/02 02:57:11;;;;;;;22.87;11.17;;;;;;;10.55;57.40;99418.47;125569;1104;103117;-73
2021/06/02 03:00:07;;;;;;;21.93;10.63;;;;;;;10.56;57.65;99409.53;125566;1104;103139;-72
2021/06/02 03:02:45;;;;;;;22.13;10.87;;;;;;;10.61;57.73;99422.51;125596;1104;103451;-72
2021/06/02 03:05:24;;;;;;;24.07;10.03;;;;;;;10.66;57.86;99420.39;125595;1104;103062;-74
2021/06/02 03:08:37;;;;;;;23.20;10.07;;;;;;;10.70;57.97;99416.58;125568;1104;103056;-72
2021/06/02 03:11:41;;;;;;;20.90;8.77;;;;;;;10.64;57.44;99427.63;125371;1108;103096;-72
2021/06/02 03:14:25;;;;;;;19.95;8.45;;;;;;;10.50;57.70;99425.90;125239;1107;103649;-72
2021/06/02 03:17:13;;;;;;;19.10;9.47;;;;;;;10.53;57.86;99434.54;125567;1104;102984;-73
2021/06/02 03:20:03;;;;;;;20.87;8.70;;;;;;;10.61;57.97;99438.47;125637;1104;102988;-75
2021/06/02 03:23:28;;;;;;;18.17;7.77;;;;;;;10.52;57.84;99445.27;125645;1104;102987;-70
2021/06/02 03:26:11;;;;;;;22.57;9.00;;;;;;;10.52;58.12;99443.47;125467;1100;103304;-72
2021/06/02 03:29:06;;;;;;;18.90;8.50;;;;;;;10.56;58.14;99450.30;125365;1100;103147;-72
2021/06/02 03:31:57;;;;;;;20.77;8.63;;;;;;;10.63;58.38;99448.07;125511;1104;102993;-71
2021/06/02 03:34:42;;;;;;;19.90;8.70;;;;;;;10.59;57.93;99437.75;125570;1104;103052;-72
2021/06/02 03:37:47;;;;;;;21.40;8.90;;;;;;;10.52;58.13;99443.47;125521;1104;102984;-74
2021/06/02 03:40:33;;;;;;;;;;;;;;;10.57;58.94;99445.81;125580;1104;102984;-73
2021/06/02 03:43:21;;;;;;;24.33;8.80;;;;;;;10.64;58.50;99449.78;125757;1104;103413;-74
2021/06/02 03:46:20;;;;;;;20.37;8.83;;;;;;;10.71;58.58;99453.73;125568;1096;102978;-73
2021/06/02 03:49:07;;;;;;;22.80;9.30;;;;;;;10.78;58.57;99451.50;125609;1096;102984;-73
2021/06/02 03:51:56;;;;;;;22.03;8.73;;;;;;;10.85;58.56;99446.61;125597;1104;102953;-73
2021/06/02 03:54:50;;;;;;;20.77;9.00;;;;;;;10.86;58.49;99438.53;125567;1104;102991;-72
2021/06/02 03:57:43;;;;;;;22.17;8.90;;;;;;;10.84;58.37;99442.24;125517;1104;103168;-73
2021/06/02 04:00:19;;;;;;;21.60;9.80;;;;;;;10.77;58.47;99444.47;125541;1096;103147;-73
2021/06/02 04:03:02;;;;;;;22.47;9.53;;;;;;;10.74;58.56;99447.34;125542;1104;102987;-73
2021/06/02 04:05:49;;;;;;;22.07;9.80;;;;;;;10.76;58.85;99447.25;125544;1105;103068;-73
2021/06/02 04:08:38;;;;;;;21.30;8.87;;;;;;;10.81;58.79;99447.77;125539;1096;103115;-72
2021/06/02 04:11:34;;;;;;;19.67;9.13;;;;;;;10.87;58.98;99444.70;125541;1104;103014;-72
2021/06/02 04:14:07;;;;;;;18.80;9.07;;;;;;;10.94;58.98;99445.98;125543;1104;103086;-72
2021/06/02 04:16:42;;;;;;;23.30;9.67;;;;;;;10.99;59.14;99445.69;125552;1104;103007;-72
2021/06/02 04:19:19;;;;;;;25.47;10.60;;;;;;;11.06;59.12;99454.09;125555;1096;103010;-73
2021/06/02 04:21:49;;;;;;;23.67;10.10;;;;;;;11.11;59.16;99452.81;125563;1104;103157;-72
2021/06/02 04:24:19;;;;;;;23.95;10.40;;;;;;;11.16;59.13;99458.67;125543;1104;103074;-72
2021/06/02 04:26:49;;;;;;;21.43;9.87;;;;;;;11.21;59.18;99457.51;125587;1104;103059;-72
2021/06/02 04:29:23;;;;;;;23.87;9.43;;;;;;;11.26;59.32;99464.20;125568;1099;103080;-73
2021/06/02 04:31:54;;;;;;;20.83;9.90;;;;;;;11.34;59.34;99468.16;125584;1096;103420;-74
2021/06/02 04:34:25;;;;;;;24.90;10.10;;;;;;;11.38;59.40;99467.86;125562;1104;103065;-70
2021/06/02 04:36:55;;;;;;;21.93;9.40;;;;;;;11.47;59.43;99471.68;125513;1104;103008;-73
2021/06/02 04:39:25;;;;;;;19.80;9.37;;;;;;;11.51;59.32;99483.83;125501;1104;103105;-77
2021/06/02 04:41:57;;;;;;;22.73;9.40;;;;;;;11.59;59.56;99481.48;125508;1104;103067;-73
2021/06/02 04:44:27;;;;;;;22.33;9.30;;;;;;;11.66;59.43;99489.02;125537;1104;103081;-73
2021/06/02 04:46:57;;;;;;;22.07;8.87;;;;;;;11.72;59.66;99480.59;125549;1096;103128;-71
2021/06/02 04:50:01;;;;;;;21.25;10.05;;;;;;;11.78;59.54;99493.48;125517;1104;103013;-72
2021/06/02 04:52:33;;;;;;;21.33;10.00;;;;;;;11.86;59.76;99495.59;125548;1104;103059;-72
2021/06/02 04:55:27;;;;;;;23.37;10.77;;;;;;;11.92;59.67;99487.16;125553;1104;103142;-72
2021/06/02 04:58:27;;;;;;;23.60;10.67;;;;;;;11.96;59.69;99491.31;125574;1104;102984;-73
2021/06/02 05:01:01;;;;;;;22.97;9.60;;;;;;;12.02;59.67;99493.58;125516;1104;103575;-71
2021/06/02 05:03:57;;;;;;;24.47;11.20;;;;;;;12.08;59.66;99492.27;125513;1104;103008;-72
2021/06/02 05:07:03;;;;;;;22.07;10.47;;;;;;;12.14;59.75;99497.17;125477;1104;103110;-71
2021/06/02 05:09:53;;;;;;;25.43;10.33;;;;;;;12.23;59.98;99500.13;125539;1104;103010;-73
2021/06/02 05:12:46;;;;;;;23.90;11.07;;;;;;;12.28;59.98;99496.16;125576;1104;103080;-72
2021/06/02 05:15:35;;;;;;;24.33;11.15;;;;;;;12.38;59.96;99491.02;125530;1097;103010;-73
2021/06/02 05:18:11;;;;;;;25.13;10.83;;;;;;;12.48;59.93;99491.19;125500;1104;103059;-72
2021/06/02 05:23:48;;;;;;;24.87;11.97;;;;;;;12.70;60.38;99501.11;125526;1104;103509;-72
2021/06/02 05:26:35;;;;;;;27.83;12.20;;;;;;;12.79;60.21;99497.77;125569;1104;103116;-71
2021/06/02 05:29:22;;;;;;;25.60;12.20;;;;;;;12.93;60.08;99501.19;125551;1104;103090;-72
2021/06/02 05:31:50;;;;;;;25.53;11.63;;;;;;;13.06;60.22;99495.76;125549;1104;103016;-71
2021/06/02 05:35:09;;;;;;;27.30;12.40;;;;;;;13.18;60.22;99504.67;125529;1104;103013;-72
2021/06/02 05:38:03;;;;;;;23.80;11.73;;;;;;;13.33;60.46;99497.30;125325;1096;103196;-72
2021/06/02 05:41:07;;;;;;;21.83;10.27;;;;;;;13.46;60.19;99502.56;125482;1097;103089;-70
2021/06/02 05:43:53;;;;;;;23.23;10.57;;;;;;;13.61;60.16;99506.72;125587;1104;102984;-73
2021/06/02 05:46:43;;;;;;;22.23;9.53;;;;;;;13.76;60.28;99509.14;125513;1104;103075;-72
2021/06/02 05:49:54;;;;;;;23.10;8.45;;;;;;;13.89;60.20;99509.01;125524;1104;103162;-72
2021/06/02 05:52:54;;;;;;;20.27;8.77;;;;;;;13.99;60.29;99513.52;125515;1104;103477;-71
2021/06/02 05:55:54;;;;;;;18.27;7.90;;;;;;;14.06;60.10;99505.02;125523;1104;103457;-71
2021/06/02 05:58:55;;;;;;;16.00;7.23;;;;;;;14.13;60.04;99511.55;125476;1104;103109;-71
2021/06/02 06:01:45;;;;;;;17.70;7.53;;;;;;;14.19;60.26;99512.89;125447;1104;103142;-71
2021/06/02 06:04:37;;;;;;;23.97;8.43;;;;;;;14.26;60.18;99511.42;125568;1096;103013;-72
2021/06/02 06:07:44;;;;;;;22.25;8.05;;;;;;;14.37;60.11;99518.57;125577;1104;103201;-71
2021/06/02 06:10:34;;;;;;;19.77;7.80;;;;;;;14.49;60.00;99520.22;125583;1104;103059;-71
2021/06/02 06:13:30;;;;;;;16.50;7.00;;;;;;;14.63;59.85;99518.25;125559;1104;103572;-71
2021/06/02 06:16:33;;;;;;;18.20;6.55;;;;;;;14.78;60.05;99516.16;125520;1104;103080;-72
2021/06/02 06:19:29;;;;;;;16.20;6.17;;;;;;;14.94;59.98;99519.26;125544;1104;102970;-74
2021/06/02 06:23:05;;;;;;;21.83;6.27;;;;;;;15.08;60.01;99519.94;125511;1104;103158;-72
2021/06/02 06:25:45;;;;;;;16.60;5.80;;;;;;;15.26;59.77;99526.39;125435;1107;103180;-72
2021/06/02 06:28:50;;;;;;;16.73;6.00;;;;;;;15.39;59.83;99526.19;125492;1104;103210;-73
2021/06/02 06:31:24;;;;;;;17.27;7.03;;;;;;;15.56;59.81;99529.27;125594;1104;103063;-71
2021/06/02 06:33:55;;;;;;;20.80;6.53;;;;;;;15.73;59.62;99536.67;125640;1097;102983;-71
2021/06/02 06:36:26;;;;;;;15.20;5.63;;;;;;;15.92;59.79;99530.58;125534;1104;103107;-71
2021/06/02 06:39:08;;;;;;;17.33;6.07;;;;;;;16.12;59.32;99533.36;125614;1104;103085;-74
2021/06/02 06:41:40;;;;;;;16.93;5.97;;;;;;;16.34;59.39;99528.73;125572;1104;103043;-72
2021/06/02 06:44:13;;;;;;;14.80;5.40;;;;;;;16.55;59.47;99527.80;125488;1104;103003;-72
2021/06/02 06:46:47;;;;;;;;;;;;;;;16.74;59.07;99535.03;125558;1104;103070;-72
2021/06/02 06:49:18;;;;;;;16.85;5.05;;;;;;;17.01;59.15;99523.63;125462;1104;103045;-72
2021/06/02 06:51:52;;;;;;;12.40;5.10;;;;;;;17.32;58.91;99528.82;125521;1104;103049;-74
2021/06/02 06:54:25;;;;;;;42.73;25.40;;;;;;;17.82;58.69;99530.38;125512;1096;103075;-72
2021/06/02 06:56:55;;;;;;;20.08;7.55;;;;;;;18.34;58.87;99534.42;125498;1104;102990;-71
2021/06/02 06:59:25;;;;;;;10.93;4.83;;;;;;;18.48;58.71;99543.84;125540;1104;102984;-72
2021/06/02 07:01:54;;;;;;;15.83;5.07;;;;;;;18.47;58.92;99542.14;125524;1104;103116;-72
2021/06/02 07:04:23;;;;;;;11.40;4.15;;;;;;;18.45;58.56;99547.70;125637;1104;103112;-71
2021/06/02 07:06:58;;;;;;;9.83;4.20;;;;;;;18.49;58.46;99548.23;125643;1096;102987;-71
2021/06/02 07:09:27;;;;;;;10.30;4.37;;;;;;;18.52;58.62;99547.09;125546;1104;103113;-71
2021/06/02 07:11:57;;;;;;;14.43;4.83;;;;;;;18.56;58.40;99545.77;125556;1104;103056;-72
2021/06/02 07:14:30;;;;;;;11.60;4.60;;;;;;;18.69;58.03;99542.73;125540;1104;103016;-71
2021/06/02 07:17:07;;;;;;;12.17;4.20;;;;;;;18.84;57.95;99537.65;125635;1104;103067;-73
2021/06/02 07:19:43;;;;;;;11.43;4.67;;;;;;;19.01;57.72;99539.51;125736;1104;103010;-72
2021/06/02 07:22:19;;;;;;;7.10;4.07;;;;;;;19.16;57.87;99541.66;125508;1097;103130;-71
2021/06/02 07:24:53;;;;;;;8.70;3.73;;;;;;;19.23;57.81;99539.18;125580;1096;103198;-73
2021/06/02 07:27:24;;;;;;;7.90;3.70;;;;;;;19.27;57.69;99540.56;125531;1104;103075;-72
2021/06/02 07:29:54;;;;;;;10.43;3.60;;;;;;;19.48;57.13;99548.31;125534;1104;103106;-70
2021/06/02 07:32:23;;;;;;;16.43;7.03;;;;;;;19.57;57.20;99546.50;125598;1104;103090;-71
2021/06/02 07:34:52;;;;;;;23.63;10.57;;;;;;;19.62;57.12;99541.48;125630;1104;103084;-71
2021/06/02 07:37:24;;;;;;;13.13;5.10;;;;;;;19.66;57.13;99550.13;125582;1104;103602;-74
2021/06/02 07:39:55;;;;;;;11.40;4.40;;;;;;;19.85;56.73;99554.45;125553;1104;103085;-71
2021/06/02 07:42:24;;;;;;;12.60;4.93;;;;;;;19.93;56.79;99557.23;125703;1104;102976;-72
2021/06/02 07:44:56;;;;;;;13.43;4.30;;;;;;;20.03;56.50;99541.73;125701;1104;103073;-71
2021/06/02 07:47:28;;;;;;;14.40;4.60;;;;;;;20.30;56.39;99538.98;125619;1104;103005;-71
2021/06/02 07:49:57;;;;;;;11.73;4.83;;;;;;;20.50;56.02;99545.82;125636;1104;103048;-71
2021/06/02 07:52:29;;;;;;;12.13;3.90;;;;;;;20.98;55.71;99558.79;125580;1104;103086;-71
2021/06/02 07:54:57;;;;;;;6.10;3.30;;;;;;;21.83;55.10;99548.58;125530;1104;102991;-71
2021/06/02 07:57:25;;;;;;;9.97;3.53;;;;;;;22.19;55.25;99550.86;125579;1104;103086;-72
2021/06/02 07:59:54;;;;;;;9.90;3.57;;;;;;;22.69;55.26;99547.91;125581;1096;103059;-71
2021/06/02 08:02:23;;;;;;;7.57;3.33;;;;;;;22.85;55.37;99547.81;125613;1104;102987;-72
2021/06/02 08:04:52;;;;;;;8.90;3.30;;;;;;;23.17;54.78;99539.61;125606;1104;103707;-72
2021/06/02 08:07:20;;;;;;;9.07;3.10;;;;;;;23.75;54.55;99539.94;125591;1104;102984;-71
2021/06/02 08:09:50;;;;;;;7.50;3.13;;;;;;;23.42;54.71;99533.98;125642;1096;103029;-70
2021/06/02 08:12:22;;;;;;;16.97;7.63;;;;;;;23.34;54.35;99548.48;125540;1104;103210;-71
2021/06/02 08:14:50;;;;;;;13.27;4.77;;;;;;;23.35;54.17;99533.89;125606;1096;102984;-70
2021/06/02 08:17:18;;;;;;;6.40;3.40;;;;;;;23.38;53.64;99544.38;125605;1096;103104;-71
2021/06/02 08:19:47;;;;;;;8.47;3.20;;;;;;;23.63;53.54;99538.70;125626;1104;102984;-71
2021/06/02 08:22:15;;;;;;;10.53;3.63;;;;;;;23.58;53.70;99541.98;125633;1104;103453;-71
2021/06/02 08:24:43;;;;;;;7.50;3.10;;;;;;;23.16;53.37;99546.89;125558;1104;103232;-71
2021/06/02 08:27:16;;;;;;;7.53;2.80;;;;;;;22.65;53.22;99560.98;125591;1104;102984;-70
2021/06/02 08:29:45;;;;;;;2.80;2.47;;;;;;;22.12;52.85;99555.28;125548;1104;103038;-71
2021/06/02 08:32:13;;;;;;;4.80;2.67;;;;;;;21.61;52.56;99560.95;125687;1096;103112;-70
2021/06/02 08:34:41;;;;;;;7.40;3.27;;;;;;;21.29;52.09;99552.71;125593;1104;103163;-72
2021/06/02 08:37:10;;;;;;;5.53;2.83;;;;;;;21.03;52.06;99559.11;125563;1096;103103;-71
2021/06/02 08:39:38;;;;;;;6.87;3.13;;;;;;;20.93;51.87;99558.44;125580;1104;103080;-73
2021/06/02 08:42:18;;;;;;;6.83;2.60;;;;;;;20.68;51.90;99559.20;125535;1096;103087;-72
2021/06/02 08:44:47;;;;;;;4.55;2.60;;;;;;;20.51;51.24;99557.45;125573;1104;103000;-70
2021/06/02 08:47:15;;;;;;;4.60;2.30;;;;;;;20.45;50.81;99553.57;125625;1104;103080;-71
2021/06/02 08:49:43;;;;;;;4.50;2.35;;;;;;;20.27;50.49;99550.98;125554;1096;102981;-71
2021/06/02 08:52:16;;;;;;;4.03;2.50;;;;;;;20.25;50.45;99562.94;125532;1096;103053;-71
2021/06/02 08:54:44;;;;;;;7.10;2.80;;;;;;;20.33;50.32;99560.27;125537;1104;103079;-69
2021/06/02 08:57:13;;;;;;;7.97;2.60;;;;;;;20.51;50.19;99557.45;125663;1104;103474;-70
2021/06/02 08:59:41;;;;;;;6.33;2.80;;;;;;;20.90;49.90;99553.37;125517;1104;103130;-71
2021/06/02 09:02:11;;;;;;;7.50;2.77;;;;;;;20.94;49.96;99552.85;125556;1104;103270;-70
2021/06/02 09:04:39;;;;;;;41.67;26.70;;;;;;;20.92;49.69;99557.58;125620;1096;103013;-71
2021/06/02 09:07:12;;;;;;;14.50;5.77;;;;;;;20.91;49.58;99555.89;125598;1104;103147;-70
2021/06/02 09:09:44;;;;;;;7.03;3.40;;;;;;;20.86;49.33;99557.41;125588;1104;103016;-71
2021/06/02 09:12:14;;;;;;;12.90;4.03;;;;;;;20.85;49.10;99558.42;125530;1097;103457;-70
2021/06/02 09:14:45;;;;;;;14.47;7.67;;;;;;;20.99;48.60;99546.09;125550;1104;103075;-68
2021/06/02 09:17:17;;;;;;;11.80;7.08;;;;;;;21.61;48.70;99542.00;125527;1096;102991;-68
2021/06/02 09:19:49;;;;;;;14.73;5.70;;;;;;;21.93;48.73;99549.23;125509;1097;102992;-69
2021/06/02 09:22:21;;;;;;;13.08;4.40;;;;;;;22.18;48.33;99546.46;125562;1104;102976;-69
2021/06/02 09:25:02;;;;;;;10.10;4.40;;;;;;;22.88;48.78;99546.59;125516;1104;103099;-70
2021/06/02 09:27:57;;;;;;;10.00;3.80;;;;;;;23.20;48.29;99545.51;125600;1096;103140;-70
2021/06/02 09:30:38;;;;;;;37.23;22.13;;;;;;;23.29;48.45;99531.91;125486;1104;103163;-68
2021/06/02 09:33:08;;;;;;;10.93;4.43;;;;;;;23.58;47.76;99525.70;125448;1104;103117;-69
2021/06/02 09:35:41;;;;;;;6.07;3.30;;;;;;;23.57;48.33;99532.16;125517;1104;102984;-69
2021/06/02 09:38:25;;;;;;;;;;;;;;;23.57;47.41;99532.16;125608;1104;102986;-71
2021/06/02 09:40:58;;;;;;;10.47;3.10;;;;;;;23.47;47.67;99528.86;125572;1096;103119;-68
2021/06/02 09:43:35;;;;;;;7.10;3.10;;;;;;;23.36;47.67;99532.87;125632;1096;102982;-68
2021/06/02 09:46:13;;;;;;;7.00;3.00;;;;;;;23.16;46.87;99529.78;125596;1104;103171;-68
2021/06/02 09:48:47;;;;;;;8.27;2.80;;;;;;;23.68;47.17;99530.84;125613;1097;103008;-68
2021/06/02 09:51:42;;;;;;;10.53;3.00;;;;;;;24.17;47.26;99520.48;125526;1104;103082;-70
2021/06/02 09:54:10;;;;;;;7.07;2.90;;;;;;;24.44;46.70;99523.51;125506;1104;103059;-69
2021/06/02 09:56:46;;;;;;;6.70;3.00;;;;;;;24.32;46.65;99521.28;125599;1104;103083;-70
2021/06/02 09:59:15;;;;;;;9.20;3.43;;;;;;;24.13;46.48;99516.45;125535;1104;103010;-67
2021/06/02 10:02:01;;;;;;;6.48;2.60;;;;;;;24.05;46.29;99520.09;125501;1099;102979;-69
2021/06/02 10:04:42;;;;;;;9.90;2.90;;;;;;;23.93;45.85;99509.69;125533;1104;103113;-69
2021/06/02 10:07:22;;;;;;;5.33;2.77;;;;;;;23.67;45.70;99512.01;125568;1097;102845;-72
2021/06/02 10:10:09;;;;;;;6.97;3.00;;;;;;;23.25;45.06;99508.88;125586;1104;103009;-72
2021/06/02 10:12:41;;;;;;;6.30;2.53;;;;;;;22.72;44.79;99521.30;125637;1096;103036;-75
2021/06/02 10:15:09;;;;;;;18.73;7.73;;;;;;;22.41;45.11;99524.84;125620;1104;103112;-75
2021/06/02 10:17:39;;;;;;;9.87;3.67;;;;;;;22.24;44.50;99523.23;125643;1096;103116;-75
2021/06/02 10:20:15;;;;;;;7.70;3.00;;;;;;;21.90;44.09;99522.50;125579;1104;103010;-73
2021/06/02 10:22:59;;;;;;;5.70;2.40;;;;;;;21.64;43.99;99523.60;125575;1104;102984;-73
2021/06/02 10:25:29;;;;;;;5.23;2.43;;;;;;;21.49;44.22;99526.14;125562;1104;103113;-70
2021/06/02 10:28:00;;;;;;;8.07;2.40;;;;;;;21.46;43.99;99523.77;125544;1104;103129;-72
2021/06/02 10:30:35;;;;;;;5.53;2.47;;;;;;;21.41;44.01;99523.44;125596;1096;103138;-72
2021/06/02 10:33:04;;;;;;;5.83;2.33;;;;;;;21.30;43.88;99519.23;125531;1096;103131;-71
2021/06/02 10:35:32;;;;;;;4.90;2.70;;;;;;;21.25;43.67;99519.72;125575;1104;103083;-72
2021/06/02 10:38:00;;;;;;;5.10;2.83;;;;;;;21.17;43.47;99524.30;125518;1104;103170;-74
2021/06/02 10:40:32;;;;;;;6.87;2.77;;;;;;;21.02;43.13;99530.38;125596;1104;102981;-75
2021/06/02 10:43:12;;;;;;;2.97;2.40;;;;;;;20.90;43.12;99534.44;125543;1104;102977;-76
2021/06/02 10:46:08;;;;;;;6.70;3.00;;;;;;;20.82;42.96;99535.25;125527;1104;102975;-75
2021/06/02 10:49:06;;;;;;;6.50;3.43;;;;;;;20.92;42.84;99529.71;125634;1104;102984;-75
2021/06/02 10:51:38;;;;;;;8.13;3.07;;;;;;;21.01;42.81;99528.67;125605;1104;103009;-71
2021/06/02 10:54:21;;;;;;;3.47;2.50;;;;;;;21.02;42.82;99535.78;125617;1104;103013;-71
2021/06/02 10:56:57;;;;;;;5.37;2.30;;;;;;;21.04;42.90;99533.75;125711;1104;103042;-72
2021/06/02 10:59:36;;;;;;;6.23;2.70;;;;;;;21.14;42.86;99533.61;125573;1096;103149;-72
2021/06/02 11:02:21;;;;;;;6.37;2.53;;;;;;;21.29;42.86;99527.50;125597;1104;103003;-70
2021/06/02 11:05:16;;;;;;;6.60;2.83;;;;;;;21.43;42.51;99537.64;125530;1096;103024;-72
2021/06/02 11:07:52;;;;;;;6.70;2.60;;;;;;;21.43;42.46;99532.23;125537;1104;103083;-71
2021/06/02 11:10:31;;;;;;;6.37;2.47;;;;;;;21.43;42.21;99537.64;125582;1104;103540;-71
2021/06/02 11:13:06;;;;;;;4.43;2.63;;;;;;;21.46;42.21;99536.44;125694;1104;103062;-72
2021/06/02 11:15:41;;;;;;;4.03;2.50;;;;;;;21.51;42.42;99528.66;125635;1104;103077;-71
2021/06/02 11:18:09;;;;;;;12.10;3.23;;;;;;;21.50;42.11;99527.83;125625;1097;102984;-71
2021/06/02 11:20:49;;;;;;;7.60;2.93;;;;;;;21.59;42.22;99528.65;125591;1096;103022;-73
2021/06/02 11:23:28;;;;;;;5.67;2.80;;;;;;;21.65;41.80;99528.00;125540;1104;103071;-72
2021/06/02 11:26:24;;;;;;;6.05;2.65;;;;;;;21.75;41.63;99521.55;125546;1096;103413;-71
2021/06/02 11:28:56;;;;;;;6.60;2.87;;;;;;;21.72;41.51;99520.02;125567;1104;103083;-72
2021/06/02 11:31:30;;;;;;;8.70;2.73;;;;;;;21.73;41.76;99524.42;125540;1104;102981;-71
2021/06/02 11:34:33;;;;;;;6.23;2.87;;;;;;;21.73;41.88;99518.17;125591;1098;103083;-71
2021/06/02 11:37:13;;;;;;;4.23;2.43;;;;;;;21.63;41.28;99515.64;125562;1104;103086;-71
2021/06/02 11:39:45;;;;;;;8.13;2.83;;;;;;;21.49;41.12;99527.98;125534;1104;103067;-72
2021/06/02 11:42:48;;;;;;;6.37;3.23;;;;;;;21.37;41.35;99527.50;125519;1096;103444;-71
2021/06/02 11:45:22;;;;;;;7.83;2.87;;;;;;;21.25;40.83;99525.13;125551;1104;103087;-71
2021/06/02 11:47:56;;;;;;;9.27;2.70;;;;;;;21.19;40.95;99528.54;125597;1104;102984;-71
2021/06/02 11:50:27;;;;;;;6.37;2.57;;;;;;;21.12;40.78;99530.23;125603;1104;103078;-72
2021/06/02 11:53:03;;;;;;;5.20;2.60;;;;;;;21.13;40.56;99545.44;125495;1096;103218;-71
2021/06/02 11:55:34;;;;;;;6.33;2.70;;;;;;;21.10;41.13;99537.66;125559;1104;103052;-71
2021/06/02 11:58:03;;;;;;;8.43;3.20;;;;;;;20.98;40.47;99534.45;125517;1104;103454;-72
2021/06/02 12:00:35;;;;;;;6.33;2.53;;;;;;;20.95;40.72;99535.62;125591;1104;102973;-70
2021/06/02 12:03:08;;;;;;;9.87;2.80;;;;;;;20.95;40.49;99532.91;125613;1096;103505;-71
2021/06/02 12:05:41;;;;;;;7.53;3.05;;;;;;;20.93;40.46;99529.53;125551;1096;103045;-71
2021/06/02 12:08:15;;;;;;;3.97;2.80;;;;;;;20.95;40.19;99530.21;125616;1104;102992;-73